AirNav   Everest Fuels
 
 1058 users online  

3PS1 Pitcairn Heliport
Bryn Athyn, Pennsylvania, USA

GOING TO BRYN ATHYN?


FAA INFORMATION EFFECTIVE 05 DECEMBER 2019

Location

FAA Identifier: 3PS1
Lat/Long: 40-07-33.3950N 075-04-43.6190W
40-07.556583N 075-04.726983W
40.1259431,-75.0787831
(estimated)
Elevation: 190 ft. / 58 m (estimated)
Variation: 12W (1985)
From city: 1 mile NW of BRYN ATHYN, PA
Time zone: UTC -5 (UTC -4 during Daylight Saving Time)
Zip code: 19006

Heliport Operations

Heliport use: Private use, PERSONAL USE.
Activation date: 04/1987
Control tower: no
ARTCC: NEW YORK CENTER
FSS: WILLIAMSPORT FLIGHT SERVICE STATION
Attendance: UNATNDD
Wind indicator: yes
Segmented circle: yes

Heliport Communications

WX ASOS at PNE (4 nm SE): PHONE 215-677-0146
WX AWOS-3 at LOM (9 nm W): 118.925 (215-646-1068)
WX ASOS at DYL (13 nm N): 118.875 (215-345-0392)
WX ASOS at TTN (15 nm NE): 126.775 (609-538-8690)
WX ASOS at VAY (15 nm SE): 119.325 (609-267-1176)
WX ASOS at PHL (17 nm SW): PHONE 215-492-9617
WX AWOS-3 at CKZ (19 nm NW): 126.325 (215-257-7291)

Nearby radio navigation aids

VOR radial/distance  VOR name  Freq  Var
ARDr236/11.0YARDLEY VOR/DME108.2010W
PTWr114/22.8POTTSTOWN VORTAC116.5009W
GXUr300/23.2MC GUIRE VORTAC110.6012W
RBVr270/27.2ROBBINSVILLE VORTAC113.8010W
MXEr074/29.9MODENA VORTAC113.2009W
OODr029/31.2WOODSTOWN VORTAC112.8010W
SBJr219/31.5SOLBERG VOR/DME112.9010W
CYNr312/35.0COYLE VORTAC113.4010W
VCNr002/35.7CEDAR LAKE VOR/DME115.2010W
DQOr052/36.2DUPONT VORTAC114.0010W
ETXr144/38.9EAST TEXAS VOR/DME110.2009W
FJCr165/39.9ALLENTOWN VORTAC117.5010W

 
NDB name  Hdg/Dist  Freq  Var  ID
AMBLER102/9.527512WING .. -. --.
LAKEHURST289/34.539611WNEL -. . .-..

Heliport Services

Runway Information

Helipad H1

Dimensions: 60 x 60 ft. / 18 x 18 m
Surface: turf
Traffic pattern: leftleft

Heliport Ownership and Management from official FAA records

Ownership: Privately-owned
Owner: STEPHEN PITCAIRN
2410 TERWOOD DRIVE
BRYN ATHYN, PA 19009
Phone 215-947-1061

Heliport Operational Statistics

Aircraft based on the field: 1
Helicopters: 1
    

Additional Remarks

A52-H1 40' TREES 200' NW; 30' TREES 200' SE.
FOR CD CTC PHILADELPHIA APCH AT 800-354-9884.

Instrument Procedures

There are no published instrument procedures at 3PS1.

Some nearby airports with instrument procedures:

KPNE - Northeast Philadelphia Airport (4 nm SE)
KLOM - Wings Field Airport (9 nm W)
KDYL - Doylestown Airport (13 nm N)
KTTN - Trenton Mercer Airport (15 nm NE)
KVAY - South Jersey Regional Airport (15 nm SE)
N10 - Perkiomen Valley Airport (17 nm W)
KPHL - Philadelphia International Airport (17 nm SW)
N14 - Flying W Airport (17 nm SE)
KCKZ - Pennridge Airport (19 nm NW)
 
Loc | Ops | Rwys | IFR | FBO | Links
Com | Nav | Svcs | Stats | Notes
Area around 3PS1 (Pitcairn Heliport)
 
Road maps at: MapQuest Bing Google
 
Aerial photo
No photo
 
Sectional chart

 
Airport distance calculator
Flying to Pitcairn Heliport? Find the distance to fly.

From to 3PS1

Sunrise and sunset
Times for 07-Dec-2019
 Local
(UTC-5)
 Zulu
(UTC)
Morning civil twilight06:4011:40
Sunrise07:1012:10
Sunset16:3421:34
Evening civil twilight17:0422:04

Current date and time
Zulu (UTC)  08-Dec-2019 02:18:15
Local (UTC-5)  07-Dec-2019 21:18:15
 
METAR
KPNE 
4nm SE 
080154Z 01004KT 10SM CLR M01/M09 A3049 RMK AO2 SLP324 T10111089
KLOM 
9nm W 
080155Z AUTO 03003KT 10SM CLR M02/M08 A3047 RMK AO2 T10201079
KDYL 
13nm N 
080154Z AUTO 03004KT 10SM CLR M02/M09 A3045 RMK AO2 SLP321 T10171094
KTTN 
15nm NE 
ASOS 133.70 609-538-8690
080153Z 35003KT 10SM CLR M02/M09 A3047 RMK AO2 SLP314 T10171089
KVAY 
16nm SE 
ASOS 119.325 609-267-1176
080154Z AUTO 00000KT 10SM CLR M03/M07 A3048 RMK AO2 SLP322 T10331072
KPHL 
17nm SW 
080154Z 02004KT 10SM SCT250 02/M09 A3048 RMK AO2 SLP322 T00171089 $
KCKZ 
19nm NW 
080155Z AUTO 00000KT 10SM CLR M04/M09 A3046 RMK AO2
TAF
KPNE 
4nm SE 
071720Z 0718/0818 35008KT P6SM SCT250 FM072300 VRB02KT P6SM SKC FM081600 17006KT P6SM SCT250
KTTN 
15nm NE 
071720Z 0718/0818 34008KT P6SM SCT250 FM072300 VRB02KT P6SM SKC FM081600 18006KT P6SM SCT250
KPHL 
17nm SW 
072059Z 0721/0824 32005KT P6SM SCT250 FM080000 VRB02KT P6SM FEW250 FM081500 15005KT P6SM SCT250 FM082000 19009KT P6SM BKN200
NOTAMs
Click for the latest NOTAMs
NOTAMs are issued by the DoD/FAA and will open in a separate window not controlled by AirNav.

 

 
 

Would you like to see your business listed on this page?

 If your business provides an interesting product or service to pilots, flight crews, aircraft, or users of the Pitcairn Heliport, you should consider listing it here.  To start the listing process, click on the button below
 
Add a business
 

Other Pages about Pitcairn Heliport

Update a link
 
Copyright © AirNav, LLC. All rights reserved. Privacy Policy  Contact